Time;durP1;ratioP1;P1;durP2;ratioP2;P2;SDS_P1;SDS_P2;PMS_P1;PMS_P2;Temp;Humidity;BMP_temperature;BMP_pressure;BME280_temperature;BME280_humidity;BME280_pressure;Samples;Min_cycle;Max_cycle;Signal;HPM_P1;HPM_P2
2021/03/28 00:00:24;;;;;;;;;;;;;;;4.27;82.01;97306.88;1039103;28;20084;-56
2021/03/28 00:01:14;;;;;;;5.07;1.50;;;;;;;4.31;81.73;97305.72;1033335;28;19996;-57
2021/03/28 00:01:52;;;;;;;4.82;1.33;;;;;;;4.02;82.89;97264.78;1040631;28;20010;-56
2021/03/28 00:02:35;;;;;;;5.97;1.20;;;;;;;4.30;82.60;97306.69;1040300;28;20079;-56
2021/03/28 00:03:06;;;;;;;6.22;1.75;;;;;;;4.33;82.93;97305.63;1039780;28;20014;-57
2021/03/28 00:03:47;;;;;;;5.82;2.08;;;;;;;4.33;82.91;97311.72;1035404;28;20018;-55
2021/03/28 00:04:19;;;;;;;5.78;1.70;;;;;;;4.31;82.75;97310.16;1027408;28;20095;-58
2021/03/28 00:05:01;;;;;;;5.28;2.00;;;;;;;4.24;83.04;97309.72;1027497;28;20481;-57
2021/03/28 00:05:34;;;;;;;5.25;1.45;;;;;;;4.23;82.50;97312.44;1031537;28;20416;-56
2021/03/28 00:06:16;;;;;;;5.07;1.80;;;;;;;4.27;82.21;97314.78;1031501;28;20015;-56
2021/03/28 00:06:47;;;;;;;5.07;1.80;;;;;;;4.25;83.60;97315.81;1035651;28;20015;-56
2021/03/28 00:07:18;;;;;;;3.30;1.55;;;;;;;4.24;83.62;97307.09;1035603;28;20049;-58
2021/03/28 00:07:50;;;;;;;7.40;1.85;;;;;;;4.29;83.55;97318.13;1031584;28;20010;-56
2021/03/28 00:08:23;;;;;;;2.95;1.30;;;;;;;4.32;83.05;97312.69;1035457;28;20025;-56
2021/03/28 00:09:13;;;;;;;7.38;1.95;;;;;;;4.32;82.98;97315.31;1035583;28;20081;-58
2021/03/28 00:09:47;;;;;;;4.32;1.50;;;;;;;4.28;83.55;97316.44;1027530;28;20022;-54
2021/03/28 00:10:30;;;;;;;6.75;1.90;;;;;;;4.31;83.67;97318.03;1027488;28;20033;-58
2021/03/28 00:11:11;;;;;;;3.72;1.30;;;;;;;4.27;83.62;97313.94;1031614;28;20518;-55
2021/03/28 00:12:00;;;;;;;4.75;1.83;;;;;;;4.23;83.91;97323.81;1031471;28;20030;-57
2021/03/28 00:12:32;;;;;;;5.95;1.70;;;;;;;4.24;84.44;97316.78;1027463;28;20394;-56
2021/03/28 00:13:15;;;;;;;5.45;1.75;;;;;;;4.26;84.22;97325.41;1027455;28;20015;-57
2021/03/28 00:13:48;;;;;;;5.72;1.52;;;;;;;4.28;83.97;97319.06;1031337;28;20382;-57
2021/03/28 00:14:35;;;;;;;5.13;1.65;;;;;;;4.14;83.83;97295.50;1028213;28;20478;-56
2021/03/28 00:15:10;;;;;;;4.47;1.60;;;;;;;4.27;83.47;97320.03;1028433;28;20011;-59
2021/03/28 00:15:46;;;;;;;6.85;2.00;;;;;;;4.24;83.53;97322.88;1028266;28;20022;-56
2021/03/28 00:16:16;;;;;;;6.18;1.95;;;;;;;4.25;83.37;97311.41;1040477;28;20028;-57
2021/03/28 00:16:47;;;;;;;7.28;1.90;;;;;;;4.28;83.51;97320.88;1040322;28;20048;-55
2021/03/28 00:17:19;;;;;;;6.63;1.88;;;;;;;4.25;83.67;97319.31;1036380;28;20018;-56
2021/03/28 00:17:50;;;;;;;5.95;1.90;;;;;;;4.26;83.81;97320.97;1036301;28;20105;-56
2021/03/28 00:18:24;;;;;;;5.13;2.03;;;;;;;4.29;83.88;97320.78;1040488;28;20014;-56
2021/03/28 00:19:07;;;;;;;7.63;2.25;;;;;;;4.32;84.05;97320.56;1037127;28;20067;-57
2021/03/28 00:19:37;;;;;;;5.38;1.83;;;;;;;4.31;84.09;97316.25;1032281;28;20073;-57
2021/03/28 00:20:16;;;;;;;4.88;1.73;;;;;;;4.27;84.14;97319.19;1030404;28;20465;-56
2021/03/28 00:20:46;;;;;;;5.68;1.60;;;;;;;4.19;84.29;97301.28;1034841;28;20551;-59
2021/03/28 00:21:19;;;;;;;3.70;1.55;;;;;;;4.25;83.84;97319.31;1036311;28;20053;-56
2021/03/28 00:21:52;;;;;;;3.88;1.52;;;;;;;4.27;84.13;97313.94;1032293;28;20022;-56
2021/03/28 00:22:27;;;;;;;3.72;1.55;;;;;;;4.28;83.51;97319.06;1036193;28;20133;-56
2021/03/28 00:23:06;;;;;;;4.88;1.70;;;;;;;4.32;83.10;97320.56;1036230;28;20077;-56
2021/03/28 00:23:48;;;;;;;3.75;1.75;;;;;;;4.32;83.38;97323.19;1032040;28;20019;-54
2021/03/28 00:24:29;;;;;;;2.85;1.48;;;;;;;4.29;83.90;97320.78;1032283;28;20031;-56
2021/03/28 00:25:10;;;;;;;6.38;1.85;;;;;;;4.30;83.72;97317.22;1032170;28;20092;-58
2021/03/28 00:25:53;;;;;;;7.70;1.90;;;;;;;4.28;84.06;97319.06;1032234;28;20049;-57
2021/03/28 00:26:36;;;;;;;6.97;1.77;;;;;;;4.28;84.28;97321.69;1032222;28;20054;-56
2021/03/28 00:27:08;;;;;;;4.30;1.73;;;;;;;4.30;83.65;97326.88;1036323;28;20026;-58
2021/03/28 00:27:43;;;;;;;5.25;1.60;;;;;;;4.29;83.37;97312.06;1032253;28;20045;-58
2021/03/28 00:28:23;;;;;;;5.40;2.05;;;;;;;4.31;84.21;97318.03;1040562;28;20024;-57
2021/03/28 00:29:13;;;;;;;4.38;1.65;;;;;;;4.29;84.92;97310.25;1040423;28;20022;-57
2021/03/28 00:29:55;;;;;;;5.50;1.80;;;;;;;4.32;85.83;97317.94;1036159;28;20018;-55
2021/03/28 00:30:37;;;;;;;6.63;1.85;;;;;;;4.32;85.92;97311.84;1040599;28;20022;-55
2021/03/28 00:31:20;;;;;;;4.82;1.42;;;;;;;4.31;85.83;97316.25;1032311;28;20172;-56
2021/03/28 00:32:01;;;;;;;5.13;1.80;;;;;;;4.29;85.31;97312.88;1036316;28;20017;-58
2021/03/28 00:32:42;;;;;;;7.68;2.10;;;;;;;4.30;84.92;97316.34;1028700;28;20025;-56
2021/03/28 00:33:19;;;;;;;8.35;1.80;;;;;;;4.28;85.74;97311.19;1040364;28;20041;-57
2021/03/28 00:34:10;;;;;;;7.20;2.08;;;;;;;4.24;86.24;97312.34;1036026;28;20018;-56
2021/03/28 00:34:43;;;;;;;6.18;1.65;;;;;;;4.21;87.16;97314.34;1028143;28;20019;-57
2021/03/28 00:35:16;;;;;;;5.25;1.73;;;;;;;4.23;87.25;97317.69;1028287;28;20039;-55
2021/03/28 00:35:57;;;;;;;6.93;2.03;;;;;;;4.22;88.03;97322.13;1031527;28;20077;-58
2021/03/28 00:36:32;;;;;;;6.18;1.88;;;;;;;4.19;87.94;97310.97;1030255;28;20023;-54
2021/03/28 00:37:11;;;;;;;6.70;1.85;;;;;;;4.17;87.91;97313.69;1032272;28;20022;-58
2021/03/28 00:37:43;;;;;;;5.43;1.73;;;;;;;4.17;88.10;97311.06;1036028;28;20109;-58
2021/03/28 00:38:16;;;;;;;7.68;1.88;;;;;;;4.19;88.89;97314.44;1040366;28;20446;-56
2021/03/28 00:38:50;;;;;;;7.03;2.10;;;;;;;4.18;90.29;97311.91;1036169;28;20038;-57
2021/03/28 00:39:41;;;;;;;7.75;2.22;;;;;;;4.18;90.80;97318.03;1028168;28;20082;-58
2021/03/28 00:40:14;;;;;;;7.32;2.42;;;;;;;4.14;91.09;97316.53;1031825;28;20039;-57
2021/03/28 00:40:45;;;;;;;7.60;2.13;;;;;;;4.12;91.46;97308.75;1035793;28;20022;-57
2021/03/28 00:41:19;;;;;;;7.10;2.08;;;;;;;4.11;91.55;97314.09;1040438;28;20017;-58
2021/03/28 00:42:01;;;;;;;6.93;2.10;;;;;;;4.06;92.25;97313.56;1036135;28;20018;-57
2021/03/28 00:42:36;;;;;;;6.53;2.15;;;;;;;4.08;92.38;97311.69;1040263;28;20024;-57
2021/03/28 00:43:17;;;;;;;5.90;1.70;;;;;;;4.04;91.49;97308.44;1036276;28;20025;-57
2021/03/28 00:43:53;;;;;;;8.95;2.30;;;;;;;4.05;91.60;97307.47;1027933;28;20465;-58
2021/03/28 00:44:24;;;;;;;6.05;2.15;;;;;;;3.99;91.51;97307.88;1032249;28;20019;-57
2021/03/28 00:45:03;;;;;;;5.20;2.10;;;;;;;3.92;91.97;97310.06;1028126;28;20015;-57
2021/03/28 00:45:36;;;;;;;6.05;2.15;;;;;;;3.93;92.16;97314.38;1028119;28;20113;-56
2021/03/28 00:46:07;;;;;;;4.57;1.92;;;;;;;3.96;91.45;97314.19;1032126;28;20027;-55
2021/03/28 00:46:55;;;;;;;8.63;2.45;;;;;;;3.99;91.38;97317.53;1033857;28;20082;-58
2021/03/28 00:47:29;;;;;;;6.13;2.10;;;;;;;3.71;91.20;97261.53;1028146;28;20399;-57
2021/03/28 00:48:11;;;;;;;6.40;2.22;;;;;;;3.98;91.33;97314.06;1032040;28;20021;-57
2021/03/28 00:48:48;;;;;;;9.48;2.38;;;;;;;3.91;91.66;97303.13;1036339;28;20045;-55
2021/03/28 00:49:30;;;;;;;7.38;2.13;;;;;;;3.96;91.52;97314.19;1032225;28;20031;-55
2021/03/28 00:50:10;;;;;;;7.57;1.90;;;;;;;3.97;91.75;97315.00;1031970;28;20021;-56
2021/03/28 00:50:41;;;;;;;5.75;2.20;;;;;;;3.95;92.03;97312.50;1036204;28;20021;-56
2021/03/28 00:51:20;;;;;;;7.00;2.45;;;;;;;3.76;94.00;97298.88;1040296;28;20372;-57
2021/03/28 00:51:56;;;;;;;7.22;2.50;;;;;;;3.84;94.11;97309.72;1036363;28;20018;-55
2021/03/28 00:52:29;;;;;;;6.93;2.20;;;;;;;3.84;93.80;97312.34;1040161;28;20112;-56
2021/03/28 00:53:02;;;;;;;5.45;1.85;;;;;;;3.84;93.67;97308.88;1044479;28;20016;-56
2021/03/28 00:53:42;;;;;;;7.03;2.05;;;;;;;3.80;93.85;97310.88;1036038;28;20025;-55
2021/03/28 00:54:15;;;;;;;6.72;2.15;;;;;;;3.79;94.12;97301.28;1036080;28;20385;-55
2021/03/28 00:54:49;;;;;;;6.63;2.55;;;;;;;3.77;94.38;97311.06;1036228;28;20360;-56
2021/03/28 00:55:23;;;;;;;7.25;2.28;;;;;;;3.74;94.61;97308.63;1040381;28;20041;-57
2021/03/28 00:55:57;;;;;;;4.60;2.08;;;;;;;3.74;94.70;97306.00;1037387;28;20522;-56
2021/03/28 00:56:45;;;;;;;5.90;2.00;;;;;;;3.70;95.58;97299.28;1029485;28;20022;-57
2021/03/28 00:57:23;;;;;;;5.43;1.92;;;;;;;3.64;97.03;97297.91;1036106;28;20390;-56
2021/03/28 00:58:07;;;;;;;5.15;1.88;;;;;;;3.65;97.04;97301.34;1036120;28;20552;-58
2021/03/28 00:58:50;;;;;;;6.05;1.85;;;;;;;3.58;98.99;97299.13;1044350;28;20025;-56
2021/03/28 00:59:26;;;;;;;6.78;2.08;;;;;;;3.57;99.67;97299.22;1032180;28;20423;-56
2021/03/28 01:00:00;;;;;;;5.45;2.10;;;;;;;3.57;99.96;97302.69;1032038;28;20059;-57
2021/03/28 01:00:46;;;;;;;6.45;2.13;;;;;;;3.55;100.00;97298.47;1034958;28;20009;-54
2021/03/28 01:01:28;;;;;;;7.30;2.40;;;;;;;3.52;100.00;97304.78;1035668;28;20021;-57
2021/03/28 01:02:13;;;;;;;9.07;1.95;;;;;;;3.50;98.69;97295.28;1036058;28;20137;-57
2021/03/28 01:03:02;;;;;;;5.90;2.30;;;;;;;3.44;99.43;97299.16;1036080;28;20108;-58
2021/03/28 01:03:57;;;;;;;5.95;2.25;;;;;;;3.44;99.37;97296.53;1036484;28;20381;-57
2021/03/28 01:04:38;;;;;;;6.53;2.13;;;;;;;3.43;99.98;97299.25;1029784;28;20079;-56
2021/03/28 01:05:19;;;;;;;10.07;2.30;;;;;;;3.41;99.48;97296.72;1028244;28;20067;-56
2021/03/28 01:05:50;;;;;;;5.93;1.60;;;;;;;3.37;99.13;97305.75;1032135;28;20404;-57
2021/03/28 01:06:31;;;;;;;8.57;1.88;;;;;;;3.35;98.78;97307.63;1036090;28;20022;-58
2021/03/28 01:07:11;;;;;;;6.75;2.10;;;;;;;3.33;98.42;97301.66;1044262;28;20025;-56
2021/03/28 01:07:57;;;;;;;5.60;2.00;;;;;;;3.31;97.75;97307.00;1040254;28;20557;-57
2021/03/28 01:08:38;;;;;;;4.95;1.70;;;;;;;3.29;97.26;97297.50;1036209;28;20022;-57
2021/03/28 01:09:28;;;;;;;5.68;2.05;;;;;;;3.26;97.08;97297.69;1032064;28;20033;-55
2021/03/28 01:10:09;;;;;;;3.53;1.50;;;;;;;3.23;96.76;97303.16;1032027;28;20022;-57
2021/03/28 01:10:59;;;;;;;12.30;2.28;;;;;;;3.20;97.12;97294.53;1036165;28;20033;-56
2021/03/28 01:11:43;;;;;;;7.25;2.13;;;;;;;3.18;96.88;97293.78;1040233;28;20060;-57
2021/03/28 01:12:34;;;;;;;5.35;2.15;;;;;;;3.14;96.56;97291.47;1036632;28;20092;-56
2021/03/28 01:13:24;;;;;;;6.20;1.95;;;;;;;3.12;96.14;97293.34;1036611;28;20606;-57
2021/03/28 01:14:09;;;;;;;5.97;1.70;;;;;;;3.06;95.74;97289.31;1031869;28;20499;-56
2021/03/28 01:14:43;;;;;;;5.82;1.77;;;;;;;3.06;95.94;97289.31;1033247;28;20030;-57
2021/03/28 01:15:24;;;;;;;5.75;1.80;;;;;;;3.02;97.76;97290.44;1036050;28;20034;-56
2021/03/28 01:16:15;;;;;;;4.95;1.98;;;;;;;3.00;98.90;97290.53;1040103;28;20032;-56
2021/03/28 01:17:05;;;;;;;4.80;1.65;;;;;;;2.98;100.00;97287.16;1036207;28;20033;-56
2021/03/28 01:17:44;;;;;;;5.47;2.58;;;;;;;2.92;100.00;97290.16;1029235;28;20563;-56
2021/03/28 01:18:25;;;;;;;;;;;;;;;2.87;100.00;97279.09;1032430;28;20031;-56
2021/03/28 01:19:01;;;;;;;7.22;1.98;;;;;;;2.85;100.00;97280.97;1032108;28;19993;-57
2021/03/28 01:19:46;;;;;;;5.25;1.60;;;;;;;2.84;100.00;97276.69;1031960;28;20050;-57
2021/03/28 01:20:37;;;;;;;5.35;1.60;;;;;;;2.55;100.00;97239.13;1036148;28;20022;-56
2021/03/28 01:21:13;;;;;;;4.75;1.90;;;;;;;2.78;100.00;97275.28;1037444;28;20022;-56
2021/03/28 01:21:55;;;;;;;5.43;1.88;;;;;;;2.78;100.00;97275.28;1039641;28;20028;-57
2021/03/28 01:22:45;;;;;;;5.32;1.48;;;;;;;2.76;100.00;97279.78;1032033;28;20536;-57
2021/03/28 01:23:22;;;;;;;9.63;2.28;;;;;;;2.75;100.00;97282.47;1036225;28;20018;-57
2021/03/28 01:24:03;;;;;;;4.90;1.80;;;;;;;2.72;100.00;97280.06;1031755;28;20077;-56
2021/03/28 01:24:57;;;;;;;5.38;1.75;;;;;;;2.68;100.00;97282.00;1036056;28;20112;-56
2021/03/28 01:25:43;;;;;;;5.88;2.20;;;;;;;2.65;100.00;97282.22;1040653;28;20024;-57
2021/03/28 01:26:21;;;;;;;5.32;1.80;;;;;;;2.62;100.00;97278.00;1036978;28;20026;-58
2021/03/28 01:27:05;;;;;;;6.45;1.90;;;;;;;2.62;100.00;97280.63;1036092;28;20113;-57
2021/03/28 01:27:46;;;;;;;4.25;1.80;;;;;;;2.61;100.00;97275.47;1036127;28;20029;-57
2021/03/28 01:28:19;;;;;;;6.25;2.10;;;;;;;2.60;100.00;97279.88;1035902;28;20021;-57
2021/03/28 01:28:53;;;;;;;3.55;1.73;;;;;;;2.60;100.00;97279.03;1035768;28;20480;-56
2021/03/28 01:29:29;;;;;;;6.32;1.58;;;;;;;2.60;100.00;97281.66;1035995;28;20109;-57
2021/03/28 01:30:11;;;;;;;4.43;1.88;;;;;;;2.58;100.00;97276.50;1035901;28;20408;-55
2021/03/28 01:30:47;;;;;;;4.72;1.85;;;;;;;2.60;100.00;97276.41;1040128;28;20542;-57
2021/03/28 01:31:22;;;;;;;7.15;2.33;;;;;;;2.60;100.00;97279.03;1036063;28;20034;-57
2021/03/28 01:31:54;;;;;;;7.50;2.15;;;;;;;2.59;100.00;97279.97;1034820;28;20017;-57
2021/03/28 01:32:37;;;;;;;7.25;2.10;;;;;;;2.60;100.00;97284.28;1035272;28;20484;-56
2021/03/28 01:33:21;;;;;;;4.43;2.00;;;;;;;2.58;100.00;97283.53;1034471;28;20023;-56
2021/03/28 01:34:04;;;;;;;8.18;2.05;;;;;;;2.57;100.00;97285.28;1027807;28;20738;-56
2021/03/28 01:34:50;;;;;;;7.18;2.00;;;;;;;2.58;100.00;97281.75;1032090;28;20029;-56
2021/03/28 01:35:25;;;;;;;5.68;1.75;;;;;;;2.58;100.00;97286.16;1040218;28;20028;-56
2021/03/28 01:36:07;;;;;;;7.28;1.80;;;;;;;2.56;100.00;97283.63;1035961;28;20050;-56
2021/03/28 01:36:41;;;;;;;4.60;1.67;;;;;;;2.56;100.00;97285.38;1040116;28;20032;-57
2021/03/28 01:37:18;;;;;;;5.15;1.70;;;;;;;2.56;100.00;97281.00;1031866;28;20025;-57
2021/03/28 01:37:59;;;;;;;7.03;1.80;;;;;;;2.57;100.00;97279.22;1032044;28;20030;-57
2021/03/28 01:38:37;;;;;;;6.18;2.33;;;;;;;2.57;100.00;97279.22;1031866;28;20022;-56
2021/03/28 01:39:25;;;;;;;6.88;1.90;;;;;;;2.56;100.00;97278.38;1035938;28;20022;-57
2021/03/28 01:40:16;;;;;;;4.50;1.92;;;;;;;2.58;100.00;97280.91;1039992;28;20458;-57
2021/03/28 01:40:51;;;;;;;4.95;1.75;;;;;;;2.57;100.00;97273.97;1032952;28;20400;-57
2021/03/28 01:41:23;;;;;;;6.00;2.20;;;;;;;2.52;100.00;97273.41;1031985;28;20023;-57
2021/03/28 01:41:57;;;;;;;8.20;2.58;;;;;;;2.52;100.00;97282.09;1035686;28;20026;-58
2021/03/28 01:42:49;;;;;;;5.45;1.95;;;;;;;2.50;100.00;97278.75;1039923;28;20057;-56
2021/03/28 01:43:40;;;;;;;6.18;1.85;;;;;;;2.48;100.00;97272.75;1040035;28;20021;-57
2021/03/28 01:44:17;;;;;;;7.25;1.98;;;;;;;2.46;100.00;97282.50;1035097;28;20025;-58
2021/03/28 01:44:49;;;;;;;8.07;2.15;;;;;;;2.44;100.00;97277.34;1031934;28;20066;-56
2021/03/28 01:45:24;;;;;;;4.45;1.60;;;;;;;2.45;100.00;97280.78;1036009;28;20380;-57
2021/03/28 01:45:59;;;;;;;6.32;2.30;;;;;;;2.43;100.00;97273.03;1037965;28;20411;-56
2021/03/28 01:46:39;;;;;;;6.47;2.10;;;;;;;2.43;100.00;97275.63;1031894;28;20113;-55
2021/03/28 01:47:30;;;;;;;8.20;2.30;;;;;;;2.42;100.00;97271.34;1036039;28;20049;-56
2021/03/28 01:48:14;;;;;;;6.00;2.03;;;;;;;2.41;100.00;97274.91;1040115;28;20021;-57
2021/03/28 01:48:53;;;;;;;4.20;1.85;;;;;;;2.40;100.00;97281.09;1036363;28;20471;-55
2021/03/28 01:49:35;;;;;;;5.85;1.63;;;;;;;2.38;100.00;97275.06;1032034;28;20018;-57
2021/03/28 01:50:24;;;;;;;4.00;1.95;;;;;;;2.38;100.00;97280.31;1027745;28;20019;-55
2021/03/28 01:51:02;;;;;;;5.25;1.70;;;;;;;2.35;100.00;97275.28;1032013;28;20018;-56
2021/03/28 01:51:34;;;;;;;8.38;1.85;;;;;;;2.34;100.00;97270.13;1036062;28;20022;-57
2021/03/28 01:52:16;;;;;;;4.38;1.60;;;;;;;2.33;100.00;97271.88;1039451;28;20021;-56
2021/03/28 01:52:54;;;;;;;7.10;2.03;;;;;;;2.29;100.00;97275.63;1035825;28;20021;-56
2021/03/28 01:53:26;;;;;;;5.22;1.73;;;;;;;2.32;100.00;97272.84;1035941;28;20014;-56
2021/03/28 01:54:16;;;;;;;4.93;1.85;;;;;;;2.31;100.00;97279.00;1035930;28;20416;-56
2021/03/28 01:54:54;;;;;;;5.80;1.85;;;;;;;2.29;100.00;97274.81;1031867;28;20050;-54
2021/03/28 01:55:34;;;;;;;5.03;1.73;;;;;;;2.28;100.00;97273.94;1035915;28;20079;-56
2021/03/28 01:56:07;;;;;;;;;;;;;;;2.29;100.00;97280.88;1040377;28;20120;-56
2021/03/28 01:56:49;;;;;;;7.95;2.10;;;;;;;2.29;100.00;97275.63;1031950;28;19997;-56
2021/03/28 01:57:32;;;;;;;9.18;2.22;;;;;;;2.30;100.00;97279.09;1035878;28;20523;-56
2021/03/28 01:58:14;;;;;;;4.35;1.90;;;;;;;2.24;100.00;97280.31;1039920;28;20475;-57
2021/03/28 01:59:05;;;;;;;4.65;1.83;;;;;;;2.25;100.00;97280.22;1035956;28;20040;-57
2021/03/28 01:59:47;;;;;;;7.35;1.98;;;;;;;2.25;100.00;97279.38;1036412;28;20021;-57
2021/03/28 02:00:23;;;;;;;5.07;1.70;;;;;;;2.21;100.00;97276.09;1036392;28;20448;-56
2021/03/28 02:01:14;;;;;;;6.13;2.30;;;;;;;2.22;100.00;97279.56;1039962;28;20029;-55
2021/03/28 02:01:57;;;;;;;6.32;2.10;;;;;;;2.20;100.00;97276.19;1040089;28;20048;-56
2021/03/28 02:02:37;;;;;;;4.10;1.92;;;;;;;2.17;100.00;97279.00;1036192;28;20029;-55
2021/03/28 02:03:21;;;;;;;6.03;1.70;;;;;;;2.16;100.00;97275.53;1035904;28;20156;-57
2021/03/28 02:04:06;;;;;;;6.30;1.95;;;;;;;2.16;100.00;97279.91;1031717;28;20037;-57
2021/03/28 02:04:56;;;;;;;6.50;1.98;;;;;;;2.16;100.00;97280.78;1035960;28;20026;-56
2021/03/28 02:05:34;;;;;;;8.07;1.95;;;;;;;2.17;100.00;97281.59;1031766;28;20018;-55
2021/03/28 02:06:12;;;;;;;6.25;1.95;;;;;;;2.07;100.00;97261.19;1028100;28;20201;-54
2021/03/28 02:06:56;;;;;;;6.05;2.00;;;;;;;2.14;100.00;97276.53;1036024;28;20447;-56
2021/03/28 02:07:37;;;;;;;6.90;1.98;;;;;;;2.17;100.00;97276.38;1035750;28;20014;-57
2021/03/28 02:08:10;;;;;;;5.15;1.85;;;;;;;2.16;100.00;97270.28;1035904;28;20018;-56
2021/03/28 02:08:52;;;;;;;4.97;2.03;;;;;;;2.12;100.00;97279.25;1031833;28;20560;-56
2021/03/28 02:09:42;;;;;;;7.78;2.45;;;;;;;2.05;100.00;97270.91;1027817;28;20085;-56
2021/03/28 02:10:32;;;;;;;4.97;1.98;;;;;;;2.12;100.00;97275.78;1031816;28;20106;-55
2021/03/28 02:11:13;;;;;;;5.18;2.10;;;;;;;2.11;100.00;97276.72;1033100;28;20075;-56
2021/03/28 02:11:57;;;;;;;5.20;1.73;;;;;;;2.12;100.00;97275.78;1029274;28;20023;-57
2021/03/28 02:12:47;;;;;;;5.05;2.28;;;;;;;2.11;100.00;97282.81;1035846;28;20018;-57
2021/03/28 02:13:31;;;;;;;4.90;1.95;;;;;;;2.10;100.00;97275.03;1028160;28;20022;-57
2021/03/28 02:14:22;;;;;;;9.20;2.05;;;;;;;2.07;100.00;97276.06;1031710;28;20053;-55
2021/03/28 02:14:59;;;;;;;5.07;1.83;;;;;;;1.81;100.00;97230.44;1036878;28;20483;-55
2021/03/28 02:15:43;;;;;;;8.15;2.25;;;;;;;2.12;100.00;97273.16;1035913;28;20563;-58
2021/03/28 02:16:33;;;;;;;4.63;2.13;;;;;;;2.12;100.00;97274.00;1027844;28;20026;-56
2021/03/28 02:17:12;;;;;;;5.28;2.10;;;;;;;2.09;100.00;97271.59;1028264;28;20021;-58
2021/03/28 02:17:59;;;;;;;5.15;2.30;;;;;;;2.10;100.00;97267.19;1031826;28;20018;-56
2021/03/28 02:18:40;;;;;;;5.53;1.83;;;;;;;2.11;100.00;97271.47;1027816;28;20026;-53
2021/03/28 02:19:24;;;;;;;5.65;1.95;;;;;;;2.11;100.00;97269.72;1031831;28;20025;-57
2021/03/28 02:20:04;;;;;;;4.28;1.80;;;;;;;2.11;100.00;97271.47;1035653;28;20026;-55
2021/03/28 02:20:47;;;;;;;6.25;2.25;;;;;;;2.08;100.00;97268.09;1035913;28;20024;-57
2021/03/28 02:21:23;;;;;;;3.97;1.80;;;;;;;2.08;100.00;97262.88;1039929;28;20144;-57
2021/03/28 02:22:04;;;;;;;4.72;1.70;;;;;;;2.11;100.00;97266.22;1035479;28;20026;-56
2021/03/28 02:22:54;;;;;;;7.57;2.30;;;;;;;2.15;100.00;97265.97;1035534;28;20037;-57
2021/03/28 02:23:30;;;;;;;3.97;1.80;;;;;;;2.17;100.00;97273.75;1036404;28;20081;-55
2021/03/28 02:24:12;;;;;;;4.03;2.00;;;;;;;2.20;100.00;97269.16;1031623;28;20090;-55
2021/03/28 02:24:48;;;;;;;3.75;1.60;;;;;;;2.22;100.00;97269.06;1031765;28;20034;-57
2021/03/28 02:25:25;;;;;;;3.85;1.92;;;;;;;2.25;100.00;97268.91;1027846;28;20061;-58
2021/03/28 02:25:59;;;;;;;3.92;1.60;;;;;;;2.27;100.00;97264.41;1027773;28;20051;-55
2021/03/28 02:26:43;;;;;;;8.68;1.98;;;;;;;2.29;100.00;97270.38;1027665;28;20019;-55
2021/03/28 02:27:27;;;;;;;6.53;2.00;;;;;;;2.32;100.00;97270.22;1031789;28;20019;-57
2021/03/28 02:28:08;;;;;;;6.47;2.30;;;;;;;2.34;100.00;97267.50;1031757;28;20025;-56
2021/03/28 02:28:46;;;;;;;5.22;1.50;;;;;;;2.35;100.00;97269.16;1031733;28;20006;-56
2021/03/28 02:29:28;;;;;;;7.20;2.38;;;;;;;2.37;100.00;97268.16;1044093;28;20477;-57
2021/03/28 02:30:10;;;;;;;4.53;2.08;;;;;;;2.38;100.00;97272.44;1039800;28;20017;-57
2021/03/28 02:30:43;;;;;;;4.82;1.50;;;;;;;2.41;100.00;97279.31;1039822;28;20490;-56
2021/03/28 02:31:34;;;;;;;6.70;1.98;;;;;;;2.43;100.00;97274.81;1043412;28;20051;-57
2021/03/28 02:32:22;;;;;;;5.63;2.00;;;;;;;2.45;100.00;97273.75;1035812;28;20021;-57
2021/03/28 02:33:10;;;;;;;4.10;1.67;;;;;;;2.49;100.00;97274.44;1035789;28;20538;-57
2021/03/28 02:33:53;;;;;;;3.85;1.83;;;;;;;2.49;100.00;97274.44;1035692;28;20093;-56
2021/03/28 02:34:35;;;;;;;3.72;1.65;;;;;;;2.50;100.00;97270.03;1035726;28;20021;-57
2021/03/28 02:35:27;;;;;;;5.35;2.10;;;;;;;2.53;100.00;97277.72;1031692;28;20010;-55
2021/03/28 02:36:17;;;;;;;6.15;1.75;;;;;;;2.57;100.00;97280.06;1032584;28;20020;-56
2021/03/28 02:36:58;;;;;;;5.40;1.83;;;;;;;2.58;100.00;97275.66;1039797;28;20013;-57
2021/03/28 02:37:42;;;;;;;3.28;1.63;;;;;;;2.60;100.00;97273.78;1035419;28;20019;-57
2021/03/28 02:38:18;;;;;;;5.63;2.17;;;;;;;2.64;100.00;97280.53;1031521;28;20015;-57
2021/03/28 02:39:09;;;;;;;9.43;2.40;;;;;;;2.65;100.00;97271.72;1035711;28;20029;-57
2021/03/28 02:39:57;;;;;;;7.80;1.60;;;;;;;2.68;100.00;97281.19;1027797;28;20416;-57
2021/03/28 02:40:48;;;;;;;6.70;1.90;;;;;;;2.69;100.00;97277.63;1034538;28;20018;-57
2021/03/28 02:41:38;;;;;;;6.10;1.70;;;;;;;2.70;100.00;97274.91;1030012;28;20038;-58
2021/03/28 02:42:13;;;;;;;6.97;2.20;;;;;;;2.67;100.00;97280.34;1032892;28;20057;-56
2021/03/28 02:42:56;;;;;;;3.97;2.00;;;;;;;2.69;100.00;97275.00;1027735;28;20034;-57
2021/03/28 02:43:40;;;;;;;4.57;1.77;;;;;;;2.68;100.00;97266.28;1027614;28;20088;-56
2021/03/28 02:44:16;;;;;;;8.82;1.85;;;;;;;2.69;100.00;97273.22;1031763;28;20066;-56
2021/03/28 02:45:06;;;;;;;5.75;1.63;;;;;;;2.69;100.00;97277.63;1031754;28;20508;-57
2021/03/28 02:45:41;;;;;;;7.25;2.05;;;;;;;2.68;100.00;97281.19;1027778;28;20023;-57
2021/03/28 02:46:22;;;;;;;4.82;2.03;;;;;;;2.72;100.00;97277.44;1031650;28;20018;-56
2021/03/28 02:47:05;;;;;;;4.18;1.98;;;;;;;2.72;100.00;97275.66;1031783;28;20018;-59
2021/03/28 02:47:48;;;;;;;2.97;1.73;;;;;;;2.76;100.00;97289.44;1035787;28;20041;-57
2021/03/28 02:48:33;;;;;;;3.45;1.80;;;;;;;2.78;100.00;97279.69;1035782;28;20022;-56
2021/03/28 02:49:18;;;;;;;4.70;2.15;;;;;;;2.79;100.00;97284.00;1031664;28;20431;-57
2021/03/28 02:49:53;;;;;;;4.93;1.80;;;;;;;2.79;100.00;97276.97;1035707;28;20022;-56
2021/03/28 02:50:40;;;;;;;6.07;1.90;;;;;;;2.79;100.00;97284.00;1031702;28;20072;-57
2021/03/28 02:51:32;;;;;;;3.75;1.95;;;;;;;2.76;100.00;97277.16;1039871;28;20093;-56
2021/03/28 02:52:32;;;;;;;5.78;1.85;;;;;;;2.77;100.00;97284.09;1036920;28;20060;-56
2021/03/28 02:53:18;;;;;;;4.93;2.08;;;;;;;2.77;100.00;97281.47;1038663;28;20427;-56
2021/03/28 02:54:10;;;;;;;5.30;1.80;;;;;;;2.79;100.00;97284.84;1037670;28;20446;-56
2021/03/28 02:55:00;;;;;;;3.65;2.00;;;;;;;2.84;100.00;97287.19;1036289;28;20472;-56
2021/03/28 02:55:47;;;;;;;5.80;1.80;;;;;;;2.89;100.00;97281.63;1033117;28;20336;-56
2021/03/28 02:56:31;;;;;;;5.03;2.25;;;;;;;2.89;100.00;97279.88;1039052;28;20145;-57
2021/03/28 02:57:16;;;;;;;3.15;1.73;;;;;;;2.92;100.00;97289.31;1035712;28;20125;-56
2021/03/28 02:57:49;;;;;;;7.82;2.08;;;;;;;2.95;100.00;97284.72;1031579;28;20044;-56
2021/03/28 02:58:27;;;;;;;7.45;2.00;;;;;;;2.99;100.00;97280.13;1031526;28;20065;-58
2021/03/28 02:59:16;;;;;;;9.77;2.15;;;;;;;2.98;100.00;97281.09;1035906;28;20022;-58
2021/03/28 03:00:00;;;;;;;5.15;2.00;;;;;;;3.00;100.00;97282.66;1031685;28;20072;-54
2021/03/28 03:00:44;;;;;;;8.05;2.38;;;;;;;3.00;100.00;97279.19;1032002;28;20023;-56
2021/03/28 03:01:24;;;;;;;5.63;2.25;;;;;;;3.05;100.00;97282.38;1032479;28;20021;-55
2021/03/28 03:02:12;;;;;;;7.50;1.92;;;;;;;3.02;100.00;97285.19;1035602;28;20014;-56
2021/03/28 03:02:58;;;;;;;5.38;2.10;;;;;;;3.08;100.00;97295.28;1031699;28;20018;-56
2021/03/28 03:03:39;;;;;;;4.80;1.80;;;;;;;3.03;100.00;97289.50;1031950;28;20069;-55
2021/03/28 03:04:22;;;;;;;5.25;1.92;;;;;;;3.06;100.00;97294.53;1028119;28;20019;-56
2021/03/28 03:05:05;;;;;;;5.13;2.25;;;;;;;3.07;100.00;97293.63;1035716;28;20036;-57
2021/03/28 03:05:45;;;;;;;3.70;1.80;;;;;;;3.06;100.00;97291.94;1035689;28;20030;-56
2021/03/28 03:06:27;;;;;;;7.15;1.98;;;;;;;3.04;100.00;97291.19;1035649;28;20010;-57
2021/03/28 03:07:13;;;;;;;9.57;2.28;;;;;;;3.10;100.00;97289.94;1035876;28;20033;-56
2021/03/28 03:07:58;;;;;;;3.83;1.63;;;;;;;3.09;100.00;97291.75;1039737;28;20017;-56
2021/03/28 03:08:33;;;;;;;4.40;2.30;;;;;;;3.13;100.00;97292.38;1035835;28;20018;-57
2021/03/28 03:09:19;;;;;;;4.93;2.08;;;;;;;3.14;100.00;97294.91;1035753;28;20104;-58
2021/03/28 03:10:03;;;;;;;4.38;1.70;;;;;;;3.12;100.00;97288.94;1031477;28;20015;-57
2021/03/28 03:10:53;;;;;;;3.60;1.75;;;;;;;3.16;100.00;97289.56;1031729;28;20539;-57
2021/03/28 03:11:45;;;;;;;5.43;2.00;;;;;;;3.16;100.00;97292.19;1036471;28;20037;-57
2021/03/28 03:12:30;;;;;;;7.00;2.05;;;;;;;3.15;100.00;97285.25;1038018;28;20018;-57
2021/03/28 03:13:20;;;;;;;4.10;1.70;;;;;;;3.18;100.00;97285.91;1036667;28;20415;-56
2021/03/28 03:13:51;;;;;;;4.30;2.13;;;;;;;3.23;100.00;97285.63;1036172;28;20426;-57